sensor_id;sensor_type;location;lat;lon;timestamp;temperature;humidity
1103;DHT22;538;42.654;23.376;2022-07-19T00:00:10;19.10;20.00
1103;DHT22;538;42.654;23.376;2022-07-19T00:02:38;19.10;20.50
1103;DHT22;538;42.654;23.376;2022-07-19T00:05:06;19.00;20.80
1103;DHT22;538;42.654;23.376;2022-07-19T00:07:35;19.00;21.30
1103;DHT22;538;42.654;23.376;2022-07-19T00:10:05;18.90;22.30
1103;DHT22;538;42.654;23.376;2022-07-19T00:12:33;18.90;22.20
1103;DHT22;538;42.654;23.376;2022-07-19T00:15:01;18.70;22.10
1103;DHT22;538;42.654;23.376;2022-07-19T00:17:29;18.90;22.40
1103;DHT22;538;42.654;23.376;2022-07-19T00:19:56;18.80;22.90
1103;DHT22;538;42.654;23.376;2022-07-19T00:22:24;18.80;23.30
1103;DHT22;538;42.654;23.376;2022-07-19T00:24:51;18.80;23.40
1103;DHT22;538;42.654;23.376;2022-07-19T00:27:19;18.80;23.50
1103;DHT22;538;42.654;23.376;2022-07-19T00:29:46;18.80;23.80
1103;DHT22;538;42.654;23.376;2022-07-19T00:32:14;18.80;24.20
1103;DHT22;538;42.654;23.376;2022-07-19T00:34:41;18.80;24.40
1103;DHT22;538;42.654;23.376;2022-07-19T00:37:09;18.80;24.80
1103;DHT22;538;42.654;23.376;2022-07-19T00:39:36;18.80;24.70
1103;DHT22;538;42.654;23.376;2022-07-19T00:42:03;18.80;25.10
1103;DHT22;538;42.654;23.376;2022-07-19T00:44:30;18.70;25.50
1103;DHT22;538;42.654;23.376;2022-07-19T00:46:58;18.70;26.20
1103;DHT22;538;42.654;23.376;2022-07-19T00:49:26;18.60;26.90
1103;DHT22;538;42.654;23.376;2022-07-19T00:51:54;18.60;27.10
1103;DHT22;538;42.654;23.376;2022-07-19T00:54:23;18.50;27.30
1103;DHT22;538;42.654;23.376;2022-07-19T00:56:53;18.50;27.60
1103;DHT22;538;42.654;23.376;2022-07-19T00:59:22;18.50;27.50
1103;DHT22;538;42.654;23.376;2022-07-19T01:01:50;18.40;27.60
1103;DHT22;538;42.654;23.376;2022-07-19T01:04:18;18.40;27.60
1103;DHT22;538;42.654;23.376;2022-07-19T01:06:48;18.40;28.30
1103;DHT22;538;42.654;23.376;2022-07-19T01:09:16;18.40;28.40
1103;DHT22;538;42.654;23.376;2022-07-19T01:11:43;18.40;28.70
1103;DHT22;538;42.654;23.376;2022-07-19T01:14:10;18.40;29.60
1103;DHT22;538;42.654;23.376;2022-07-19T01:16:43;18.20;29.80
1103;DHT22;538;42.654;23.376;2022-07-19T01:19:10;18.20;30.00
1103;DHT22;538;42.654;23.376;2022-07-19T01:21:38;18.20;29.50
1103;DHT22;538;42.654;23.376;2022-07-19T01:24:06;18.20;29.90
1103;DHT22;538;42.654;23.376;2022-07-19T01:26:33;18.10;30.10
1103;DHT22;538;42.654;23.376;2022-07-19T01:29:00;18.10;30.50
1103;DHT22;538;42.654;23.376;2022-07-19T01:31:27;18.10;31.20
1103;DHT22;538;42.654;23.376;2022-07-19T01:33:55;18.10;31.00
1103;DHT22;538;42.654;23.376;2022-07-19T01:36:22;18.00;32.00
1103;DHT22;538;42.654;23.376;2022-07-19T01:38:51;18.10;33.10
1103;DHT22;538;42.654;23.376;2022-07-19T01:41:18;18.00;33.40
1103;DHT22;538;42.654;23.376;2022-07-19T01:43:46;18.00;33.90
1103;DHT22;538;42.654;23.376;2022-07-19T01:46:13;17.90;35.30
1103;DHT22;538;42.654;23.376;2022-07-19T01:48:41;17.90;36.10
1103;DHT22;538;42.654;23.376;2022-07-19T01:51:08;17.90;35.20
1103;DHT22;538;42.654;23.376;2022-07-19T01:53:35;17.90;36.20
1103;DHT22;538;42.654;23.376;2022-07-19T01:56:06;17.80;38.50
1103;DHT22;538;42.654;23.376;2022-07-19T01:58:33;17.80;37.40
1103;DHT22;538;42.654;23.376;2022-07-19T02:01:00;17.80;37.50
1103;DHT22;538;42.654;23.376;2022-07-19T02:03:27;17.70;37.50
1103;DHT22;538;42.654;23.376;2022-07-19T02:05:55;17.70;38.00
1103;DHT22;538;42.654;23.376;2022-07-19T02:08:22;17.60;38.10
1103;DHT22;538;42.654;23.376;2022-07-19T02:10:50;17.70;38.20
1103;DHT22;538;42.654;23.376;2022-07-19T02:13:19;17.60;38.60
1103;DHT22;538;42.654;23.376;2022-07-19T02:15:46;17.60;37.70
1103;DHT22;538;42.654;23.376;2022-07-19T02:18:14;17.60;37.70
1103;DHT22;538;42.654;23.376;2022-07-19T02:20:41;17.60;37.40
1103;DHT22;538;42.654;23.376;2022-07-19T02:23:08;17.70;37.30
1103;DHT22;538;42.654;23.376;2022-07-19T02:25:35;17.70;37.80
1103;DHT22;538;42.654;23.376;2022-07-19T02:28:03;17.60;38.40
1103;DHT22;538;42.654;23.376;2022-07-19T02:30:32;17.60;38.00
1103;DHT22;538;42.654;23.376;2022-07-19T02:32:59;17.60;38.70
1103;DHT22;538;42.654;23.376;2022-07-19T02:35:26;17.60;37.90
1103;DHT22;538;42.654;23.376;2022-07-19T02:37:53;17.50;39.10
1103;DHT22;538;42.654;23.376;2022-07-19T02:40:20;17.50;38.50
1103;DHT22;538;42.654;23.376;2022-07-19T02:42:47;17.50;37.70
1103;DHT22;538;42.654;23.376;2022-07-19T02:45:15;17.50;37.80
1103;DHT22;538;42.654;23.376;2022-07-19T02:47:44;17.40;39.40
1103;DHT22;538;42.654;23.376;2022-07-19T02:50:12;17.40;40.50
1103;DHT22;538;42.654;23.376;2022-07-19T02:52:40;17.40;42.40
1103;DHT22;538;42.654;23.376;2022-07-19T02:55:08;17.30;42.40
1103;DHT22;538;42.654;23.376;2022-07-19T02:57:35;17.30;42.90
1103;DHT22;538;42.654;23.376;2022-07-19T03:00:03;17.30;42.90
1103;DHT22;538;42.654;23.376;2022-07-19T03:02:31;17.30;43.20
1103;DHT22;538;42.654;23.376;2022-07-19T03:04:59;17.30;43.90
1103;DHT22;538;42.654;23.376;2022-07-19T03:07:26;17.20;43.80
1103;DHT22;538;42.654;23.376;2022-07-19T03:09:54;17.20;43.80
1103;DHT22;538;42.654;23.376;2022-07-19T03:12:21;17.20;43.80
1103;DHT22;538;42.654;23.376;2022-07-19T03:14:48;17.20;43.80
1103;DHT22;538;42.654;23.376;2022-07-19T03:17:16;17.20;43.80
1103;DHT22;538;42.654;23.376;2022-07-19T03:19:43;17.20;44.10
1103;DHT22;538;42.654;23.376;2022-07-19T03:22:13;17.20;43.70
1103;DHT22;538;42.654;23.376;2022-07-19T03:24:40;17.20;41.90
1103;DHT22;538;42.654;23.376;2022-07-19T03:27:07;17.20;43.70
1103;DHT22;538;42.654;23.376;2022-07-19T03:29:34;17.20;43.80
1103;DHT22;538;42.654;23.376;2022-07-19T03:32:01;17.10;43.30
1103;DHT22;538;42.654;23.376;2022-07-19T03:34:29;17.10;45.30
1103;DHT22;538;42.654;23.376;2022-07-19T03:36:56;17.10;45.50
1103;DHT22;538;42.654;23.376;2022-07-19T03:39:24;17.10;44.80
1103;DHT22;538;42.654;23.376;2022-07-19T03:41:51;17.20;46.80
1103;DHT22;538;42.654;23.376;2022-07-19T03:44:18;17.20;47.60
1103;DHT22;538;42.654;23.376;2022-07-19T03:46:45;17.10;47.20
1103;DHT22;538;42.654;23.376;2022-07-19T03:49:12;17.20;48.10
1103;DHT22;538;42.654;23.376;2022-07-19T03:51:40;17.10;50.10
1103;DHT22;538;42.654;23.376;2022-07-19T03:54:07;17.10;50.20
1103;DHT22;538;42.654;23.376;2022-07-19T03:56:35;17.20;50.40
1103;DHT22;538;42.654;23.376;2022-07-19T03:59:03;17.20;51.10
1103;DHT22;538;42.654;23.376;2022-07-19T04:01:30;17.20;49.80
1103;DHT22;538;42.654;23.376;2022-07-19T04:03:58;17.20;49.30
1103;DHT22;538;42.654;23.376;2022-07-19T04:06:25;17.30;50.40
1103;DHT22;538;42.654;23.376;2022-07-19T04:08:52;17.30;49.70
1103;DHT22;538;42.654;23.376;2022-07-19T04:11:20;17.40;49.10
1103;DHT22;538;42.654;23.376;2022-07-19T04:13:49;17.40;48.70
1103;DHT22;538;42.654;23.376;2022-07-19T04:16:16;17.40;49.40
1103;DHT22;538;42.654;23.376;2022-07-19T04:18:43;17.40;47.00
1103;DHT22;538;42.654;23.376;2022-07-19T04:21:11;17.50;47.10
1103;DHT22;538;42.654;23.376;2022-07-19T04:23:38;17.60;46.00
1103;DHT22;538;42.654;23.376;2022-07-19T04:26:05;17.60;44.80
1103;DHT22;538;42.654;23.376;2022-07-19T04:28:33;17.60;44.90
1103;DHT22;538;42.654;23.376;2022-07-19T04:31:01;17.60;44.20
1103;DHT22;538;42.654;23.376;2022-07-19T04:33:29;17.70;43.90
1103;DHT22;538;42.654;23.376;2022-07-19T04:35:56;17.80;42.30
1103;DHT22;538;42.654;23.376;2022-07-19T04:38:23;17.80;42.90
1103;DHT22;538;42.654;23.376;2022-07-19T04:40:51;17.90;41.60
1103;DHT22;538;42.654;23.376;2022-07-19T04:43:18;17.90;41.00
1103;DHT22;538;42.654;23.376;2022-07-19T04:45:46;17.90;41.50
1103;DHT22;538;42.654;23.376;2022-07-19T04:48:14;18.00;42.70
1103;DHT22;538;42.654;23.376;2022-07-19T04:50:41;18.10;41.90
1103;DHT22;538;42.654;23.376;2022-07-19T04:53:09;18.00;41.30
1103;DHT22;538;42.654;23.376;2022-07-19T04:55:37;18.10;40.80
1103;DHT22;538;42.654;23.376;2022-07-19T04:58:04;18.10;39.80
1103;DHT22;538;42.654;23.376;2022-07-19T05:00:31;18.20;40.10
1103;DHT22;538;42.654;23.376;2022-07-19T05:02:58;18.20;39.10
1103;DHT22;538;42.654;23.376;2022-07-19T05:05:27;18.20;39.50
1103;DHT22;538;42.654;23.376;2022-07-19T05:07:54;18.30;39.50
1103;DHT22;538;42.654;23.376;2022-07-19T05:10:21;18.40;39.80
1103;DHT22;538;42.654;23.376;2022-07-19T05:12:49;18.40;39.40
1103;DHT22;538;42.654;23.376;2022-07-19T05:15:16;18.40;40.50
1103;DHT22;538;42.654;23.376;2022-07-19T05:17:43;18.50;39.50
1103;DHT22;538;42.654;23.376;2022-07-19T09:56:16;28.70;1.20
1103;DHT22;538;42.654;23.376;2022-07-19T09:58:44;30.70;1.00
1103;DHT22;538;42.654;23.376;2022-07-19T10:01:11;33.50;1.00
1103;DHT22;538;42.654;23.376;2022-07-19T10:03:39;35.30;1.00
1103;DHT22;538;42.654;23.376;2022-07-19T10:06:09;35.10;1.00
1103;DHT22;538;42.654;23.376;2022-07-19T10:08:36;34.30;1.00
1103;DHT22;538;42.654;23.376;2022-07-19T10:11:04;34.80;1.00
1103;DHT22;538;42.654;23.376;2022-07-19T10:13:44;35.60;1.00
1103;DHT22;538;42.654;23.376;2022-07-19T10:16:14;34.90;1.00
1103;DHT22;538;42.654;23.376;2022-07-19T10:18:53;34.00;1.00
1103;DHT22;538;42.654;23.376;2022-07-19T10:21:23;34.80;1.00
1103;DHT22;538;42.654;23.376;2022-07-19T10:23:50;36.50;1.00
1103;DHT22;538;42.654;23.376;2022-07-19T10:26:33;35.30;1.00
1103;DHT22;538;42.654;23.376;2022-07-19T10:29:08;33.70;1.00
1103;DHT22;538;42.654;23.376;2022-07-19T10:31:36;32.60;1.00
1103;DHT22;538;42.654;23.376;2022-07-19T10:34:07;31.80;1.00
1103;DHT22;538;42.654;23.376;2022-07-19T10:36:36;31.30;1.00
1103;DHT22;538;42.654;23.376;2022-07-19T10:39:25;31.60;1.00
1103;DHT22;538;42.654;23.376;2022-07-19T10:42:11;31.50;1.00
1103;DHT22;538;42.654;23.376;2022-07-19T10:48:17;30.70;1.00
1103;DHT22;538;42.654;23.376;2022-07-19T10:50:52;31.80;1.00
1103;DHT22;538;42.654;23.376;2022-07-19T10:56:39;37.30;1.00
1103;DHT22;538;42.654;23.376;2022-07-19T10:59:08;35.60;1.00
1103;DHT22;538;42.654;23.376;2022-07-19T11:01:36;34.40;1.00
1103;DHT22;538;42.654;23.376;2022-07-19T11:04:31;35.40;1.00
1103;DHT22;538;42.654;23.376;2022-07-19T11:07:16;36.70;1.00
1103;DHT22;538;42.654;23.376;2022-07-19T11:09:45;39.10;1.00
1103;DHT22;538;42.654;23.376;2022-07-19T11:12:35;40.50;1.00
1103;DHT22;538;42.654;23.376;2022-07-19T11:15:08;38.90;1.00
1103;DHT22;538;42.654;23.376;2022-07-19T11:17:35;38.30;1.00
1103;DHT22;538;42.654;23.376;2022-07-19T11:20:09;37.30;1.00
1103;DHT22;538;42.654;23.376;2022-07-19T11:22:40;35.00;1.00
1103;DHT22;538;42.654;23.376;2022-07-19T11:25:09;33.30;1.00
1103;DHT22;538;42.654;23.376;2022-07-19T11:27:40;31.90;1.00
1103;DHT22;538;42.654;23.376;2022-07-19T11:30:09;31.20;1.00
1103;DHT22;538;42.654;23.376;2022-07-19T11:32:36;30.60;1.00
1103;DHT22;538;42.654;23.376;2022-07-19T11:35:05;31.80;1.00
1103;DHT22;538;42.654;23.376;2022-07-19T11:37:36;34.30;1.00
1103;DHT22;538;42.654;23.376;2022-07-19T11:40:06;34.20;1.00
1103;DHT22;538;42.654;23.376;2022-07-19T11:42:35;33.00;1.00
1103;DHT22;538;42.654;23.376;2022-07-19T11:45:10;32.00;1.00
1103;DHT22;538;42.654;23.376;2022-07-19T11:47:41;33.50;1.00
1103;DHT22;538;42.654;23.376;2022-07-19T11:50:10;36.10;1.00
1103;DHT22;538;42.654;23.376;2022-07-19T11:52:48;37.90;1.00
1103;DHT22;538;42.654;23.376;2022-07-19T11:55:17;38.80;1.00
1103;DHT22;538;42.654;23.376;2022-07-19T11:57:45;39.80;1.00
1103;DHT22;538;42.654;23.376;2022-07-19T12:00:13;39.00;1.00
1103;DHT22;538;42.654;23.376;2022-07-19T12:02:58;37.40;1.00
1103;DHT22;538;42.654;23.376;2022-07-19T12:05:30;36.60;1.00
1103;DHT22;538;42.654;23.376;2022-07-19T12:08:01;36.50;1.00
1103;DHT22;538;42.654;23.376;2022-07-19T12:10:36;35.50;1.00
1103;DHT22;538;42.654;23.376;2022-07-19T12:13:06;34.60;1.00
1103;DHT22;538;42.654;23.376;2022-07-19T12:15:49;33.70;1.00
1103;DHT22;538;42.654;23.376;2022-07-19T12:18:18;32.60;1.00
1103;DHT22;538;42.654;23.376;2022-07-19T12:20:46;31.60;1.00
1103;DHT22;538;42.654;23.376;2022-07-19T12:23:34;31.10;1.00
1103;DHT22;538;42.654;23.376;2022-07-19T12:26:03;30.60;1.00
1103;DHT22;538;42.654;23.376;2022-07-19T12:28:31;30.10;1.00
1103;DHT22;538;42.654;23.376;2022-07-19T12:31:01;30.10;1.00
1103;DHT22;538;42.654;23.376;2022-07-19T12:33:29;30.10;1.00
1103;DHT22;538;42.654;23.376;2022-07-19T12:35:56;30.00;1.00
1103;DHT22;538;42.654;23.376;2022-07-19T12:38:30;30.00;1.00
1103;DHT22;538;42.654;23.376;2022-07-19T12:41:06;30.10;1.00
1103;DHT22;538;42.654;23.376;2022-07-19T12:43:34;30.20;1.00
1103;DHT22;538;42.654;23.376;2022-07-19T12:46:01;30.40;1.00
1103;DHT22;538;42.654;23.376;2022-07-19T12:48:29;30.50;1.00
1103;DHT22;538;42.654;23.376;2022-07-19T12:50:56;30.90;1.00
1103;DHT22;538;42.654;23.376;2022-07-19T12:53:24;30.90;1.00
1103;DHT22;538;42.654;23.376;2022-07-19T12:55:51;30.80;1.00
1103;DHT22;538;42.654;23.376;2022-07-19T12:58:20;30.40;1.00
1103;DHT22;538;42.654;23.376;2022-07-19T13:01:01;30.10;1.00
1103;DHT22;538;42.654;23.376;2022-07-19T13:03:28;30.10;1.00
1103;DHT22;538;42.654;23.376;2022-07-19T13:05:55;30.00;1.00
1103;DHT22;538;42.654;23.376;2022-07-19T13:08:25;29.90;1.00
1103;DHT22;538;42.654;23.376;2022-07-19T13:10:53;29.90;1.00
1103;DHT22;538;42.654;23.376;2022-07-19T13:13:22;30.00;1.00
1103;DHT22;538;42.654;23.376;2022-07-19T13:15:49;29.90;1.00
1103;DHT22;538;42.654;23.376;2022-07-19T13:18:16;30.10;1.00
1103;DHT22;538;42.654;23.376;2022-07-19T13:20:44;30.20;1.00
1103;DHT22;538;42.654;23.376;2022-07-19T13:23:11;30.20;1.00
1103;DHT22;538;42.654;23.376;2022-07-19T13:25:38;30.30;1.00
1103;DHT22;538;42.654;23.376;2022-07-19T13:28:06;30.20;1.00
1103;DHT22;538;42.654;23.376;2022-07-19T13:30:35;30.20;1.00
1103;DHT22;538;42.654;23.376;2022-07-19T13:33:03;30.10;1.00
1103;DHT22;538;42.654;23.376;2022-07-19T13:35:30;29.90;1.00
1103;DHT22;538;42.654;23.376;2022-07-19T13:37:57;29.90;1.00
1103;DHT22;538;42.654;23.376;2022-07-19T13:40:25;29.80;1.00
1103;DHT22;538;42.654;23.376;2022-07-19T13:42:53;29.80;1.00
1103;DHT22;538;42.654;23.376;2022-07-19T13:45:21;29.70;1.00
1103;DHT22;538;42.654;23.376;2022-07-19T13:47:49;29.80;1.00
1103;DHT22;538;42.654;23.376;2022-07-19T13:50:17;29.90;1.00
1103;DHT22;538;42.654;23.376;2022-07-19T13:52:44;30.00;1.00
1103;DHT22;538;42.654;23.376;2022-07-19T13:55:12;30.00;1.00
1103;DHT22;538;42.654;23.376;2022-07-19T13:57:39;30.20;1.00
1103;DHT22;538;42.654;23.376;2022-07-19T14:00:07;30.20;1.00
1103;DHT22;538;42.654;23.376;2022-07-19T14:02:37;30.20;1.00
1103;DHT22;538;42.654;23.376;2022-07-19T14:05:06;30.30;1.00
1103;DHT22;538;42.654;23.376;2022-07-19T14:07:34;30.30;1.00
1103;DHT22;538;42.654;23.376;2022-07-19T14:10:01;30.30;1.00
1103;DHT22;538;42.654;23.376;2022-07-19T14:12:28;30.10;1.00
1103;DHT22;538;42.654;23.376;2022-07-19T14:14:56;30.10;1.00
1103;DHT22;538;42.654;23.376;2022-07-19T14:17:23;29.90;1.00
1103;DHT22;538;42.654;23.376;2022-07-19T14:19:51;29.60;1.00
1103;DHT22;538;42.654;23.376;2022-07-19T14:22:19;29.70;1.00
1103;DHT22;538;42.654;23.376;2022-07-19T14:27:53;29.90;1.00
1103;DHT22;538;42.654;23.376;2022-07-19T14:30:20;29.90;1.00
1103;DHT22;538;42.654;23.376;2022-07-19T14:32:48;29.80;1.00
1103;DHT22;538;42.654;23.376;2022-07-19T14:35:15;29.80;1.00
1103;DHT22;538;42.654;23.376;2022-07-19T14:37:45;29.70;1.00
1103;DHT22;538;42.654;23.376;2022-07-19T14:40:31;29.70;1.00
1103;DHT22;538;42.654;23.376;2022-07-19T14:43:03;29.80;1.00
1103;DHT22;538;42.654;23.376;2022-07-19T14:45:31;29.80;1.00
1103;DHT22;538;42.654;23.376;2022-07-19T14:47:58;29.80;1.00
1103;DHT22;538;42.654;23.376;2022-07-19T14:50:25;29.70;1.00
1103;DHT22;538;42.654;23.376;2022-07-19T14:52:53;29.50;1.00
1103;DHT22;538;42.654;23.376;2022-07-19T14:55:21;29.40;1.00
1103;DHT22;538;42.654;23.376;2022-07-19T14:57:51;29.30;1.00
1103;DHT22;538;42.654;23.376;2022-07-19T15:00:35;29.20;1.00
1103;DHT22;538;42.654;23.376;2022-07-19T15:03:10;29.20;1.00
1103;DHT22;538;42.654;23.376;2022-07-19T15:05:42;29.20;1.00
1103;DHT22;538;42.654;23.376;2022-07-19T15:08:11;29.10;1.00
1103;DHT22;538;42.654;23.376;2022-07-19T15:10:38;28.90;1.00
1103;DHT22;538;42.654;23.376;2022-07-19T15:13:05;28.80;1.00
1103;DHT22;538;42.654;23.376;2022-07-19T15:15:33;28.80;1.00
1103;DHT22;538;42.654;23.376;2022-07-19T15:18:00;28.80;1.00
1103;DHT22;538;42.654;23.376;2022-07-19T15:20:27;28.70;1.00
1103;DHT22;538;42.654;23.376;2022-07-19T15:22:55;28.70;1.00
1103;DHT22;538;42.654;23.376;2022-07-19T15:25:23;28.90;1.00
1103;DHT22;538;42.654;23.376;2022-07-19T15:27:51;28.90;1.00
1103;DHT22;538;42.654;23.376;2022-07-19T15:30:19;28.90;1.00
1103;DHT22;538;42.654;23.376;2022-07-19T15:32:46;29.00;1.00
1103;DHT22;538;42.654;23.376;2022-07-19T15:35:14;28.90;1.00
1103;DHT22;538;42.654;23.376;2022-07-19T15:37:41;28.80;1.00
1103;DHT22;538;42.654;23.376;2022-07-19T15:40:08;28.70;1.00
1103;DHT22;538;42.654;23.376;2022-07-19T15:42:43;28.80;1.00
1103;DHT22;538;42.654;23.376;2022-07-19T15:45:11;28.70;1.00
1103;DHT22;538;42.654;23.376;2022-07-19T15:47:38;28.60;1.00
1103;DHT22;538;42.654;23.376;2022-07-19T15:50:06;28.60;1.00
1103;DHT22;538;42.654;23.376;2022-07-19T15:52:35;28.50;1.00
1103;DHT22;538;42.654;23.376;2022-07-19T15:55:02;28.40;1.00
1103;DHT22;538;42.654;23.376;2022-07-19T15:57:30;28.40;1.00
1103;DHT22;538;42.654;23.376;2022-07-19T15:59:58;28.50;1.00
1103;DHT22;538;42.654;23.376;2022-07-19T16:02:25;28.40;1.00
1103;DHT22;538;42.654;23.376;2022-07-19T16:04:52;28.30;1.00
1103;DHT22;538;42.654;23.376;2022-07-19T16:07:20;28.30;1.00
1103;DHT22;538;42.654;23.376;2022-07-19T16:09:47;28.20;1.00
1103;DHT22;538;42.654;23.376;2022-07-19T16:12:16;28.20;1.00
1103;DHT22;538;42.654;23.376;2022-07-19T16:14:43;28.20;1.00
1103;DHT22;538;42.654;23.376;2022-07-19T16:17:11;28.00;1.00
1103;DHT22;538;42.654;23.376;2022-07-19T16:19:38;28.10;1.00
1103;DHT22;538;42.654;23.376;2022-07-19T16:22:06;28.00;1.00
1103;DHT22;538;42.654;23.376;2022-07-19T16:24:33;28.10;1.00
1103;DHT22;538;42.654;23.376;2022-07-19T16:27:00;28.20;1.00
1103;DHT22;538;42.654;23.376;2022-07-19T16:29:27;28.30;1.00
1103;DHT22;538;42.654;23.376;2022-07-19T16:31:54;28.20;1.00
1103;DHT22;538;42.654;23.376;2022-07-19T16:34:26;28.20;1.00
1103;DHT22;538;42.654;23.376;2022-07-19T16:36:53;28.30;1.00
1103;DHT22;538;42.654;23.376;2022-07-19T16:39:21;28.30;1.00
1103;DHT22;538;42.654;23.376;2022-07-19T16:41:48;28.30;1.00
1103;DHT22;538;42.654;23.376;2022-07-19T16:44:15;28.50;1.00
1103;DHT22;538;42.654;23.376;2022-07-19T16:46:46;28.50;1.00
1103;DHT22;538;42.654;23.376;2022-07-19T16:49:13;28.30;1.00
1103;DHT22;538;42.654;23.376;2022-07-19T16:51:42;28.20;1.00
1103;DHT22;538;42.654;23.376;2022-07-19T16:54:10;28.20;1.00
1103;DHT22;538;42.654;23.376;2022-07-19T16:56:37;28.20;1.00
1103;DHT22;538;42.654;23.376;2022-07-19T16:59:05;28.20;1.00
1103;DHT22;538;42.654;23.376;2022-07-19T17:01:33;28.10;1.00
1103;DHT22;538;42.654;23.376;2022-07-19T17:04:03;27.90;1.00
1103;DHT22;538;42.654;23.376;2022-07-19T17:06:31;27.80;1.00
1103;DHT22;538;42.654;23.376;2022-07-19T17:09:00;27.80;1.00
1103;DHT22;538;42.654;23.376;2022-07-19T17:11:29;27.80;1.00
1103;DHT22;538;42.654;23.376;2022-07-19T17:13:56;27.70;1.00
1103;DHT22;538;42.654;23.376;2022-07-19T17:16:23;27.80;1.00
1103;DHT22;538;42.654;23.376;2022-07-19T17:18:51;27.70;1.00
1103;DHT22;538;42.654;23.376;2022-07-19T17:21:18;27.70;1.00
1103;DHT22;538;42.654;23.376;2022-07-19T17:23:45;27.70;1.00
1103;DHT22;538;42.654;23.376;2022-07-19T17:26:15;27.70;1.00
1103;DHT22;538;42.654;23.376;2022-07-19T17:28:42;27.50;1.00
1103;DHT22;538;42.654;23.376;2022-07-19T17:31:09;27.40;1.00
1103;DHT22;538;42.654;23.376;2022-07-19T17:33:36;27.30;1.00
1103;DHT22;538;42.654;23.376;2022-07-19T17:36:04;27.20;1.00
1103;DHT22;538;42.654;23.376;2022-07-19T17:38:32;27.10;1.00
1103;DHT22;538;42.654;23.376;2022-07-19T17:41:01;26.90;1.00
1103;DHT22;538;42.654;23.376;2022-07-19T17:43:30;26.80;1.00
1103;DHT22;538;42.654;23.376;2022-07-19T17:45:57;26.50;1.00
1103;DHT22;538;42.654;23.376;2022-07-19T17:48:24;26.20;1.00
1103;DHT22;538;42.654;23.376;2022-07-19T17:50:51;26.20;1.00
1103;DHT22;538;42.654;23.376;2022-07-19T17:53:18;26.00;1.10
1103;DHT22;538;42.654;23.376;2022-07-19T17:55:45;25.90;1.00
1103;DHT22;538;42.654;23.376;2022-07-19T17:58:12;25.80;1.00
1103;DHT22;538;42.654;23.376;2022-07-19T18:00:41;25.60;1.00
1103;DHT22;538;42.654;23.376;2022-07-19T18:03:09;25.50;1.10
1103;DHT22;538;42.654;23.376;2022-07-19T18:05:36;25.50;1.40
1103;DHT22;538;42.654;23.376;2022-07-19T18:08:04;25.30;1.80
1103;DHT22;538;42.654;23.376;2022-07-19T18:10:32;25.20;1.70
1103;DHT22;538;42.654;23.376;2022-07-19T18:13:00;25.10;1.50
1103;DHT22;538;42.654;23.376;2022-07-19T18:15:27;25.00;1.80
1103;DHT22;538;42.654;23.376;2022-07-19T18:17:56;24.90;2.20
1103;DHT22;538;42.654;23.376;2022-07-19T18:20:23;24.80;2.60
1103;DHT22;538;42.654;23.376;2022-07-19T18:22:50;24.60;1.80
1103;DHT22;538;42.654;23.376;2022-07-19T18:25:18;24.60;2.20
1103;DHT22;538;42.654;23.376;2022-07-19T18:27:46;24.60;1.70
1103;DHT22;538;42.654;23.376;2022-07-19T18:30:13;24.50;1.50
1103;DHT22;538;42.654;23.376;2022-07-19T18:32:41;24.50;1.90
1103;DHT22;538;42.654;23.376;2022-07-19T18:35:11;24.40;1.30
1103;DHT22;538;42.654;23.376;2022-07-19T18:37:39;24.40;1.60
1103;DHT22;538;42.654;23.376;2022-07-19T18:40:08;24.30;1.80
1103;DHT22;538;42.654;23.376;2022-07-19T18:42:35;24.30;1.80
1103;DHT22;538;42.654;23.376;2022-07-19T18:45:03;24.30;1.80
1103;DHT22;538;42.654;23.376;2022-07-19T18:47:31;24.30;2.30
1103;DHT22;538;42.654;23.376;2022-07-19T18:49:58;24.30;1.60
1103;DHT22;538;42.654;23.376;2022-07-19T18:52:27;24.40;1.90
1103;DHT22;538;42.654;23.376;2022-07-19T18:54:54;24.30;2.00
1103;DHT22;538;42.654;23.376;2022-07-19T18:57:22;24.30;2.00
1103;DHT22;538;42.654;23.376;2022-07-19T18:59:49;24.30;2.50
1103;DHT22;538;42.654;23.376;2022-07-19T19:02:16;24.00;2.80
1103;DHT22;538;42.654;23.376;2022-07-19T19:04:43;24.10;3.00
1103;DHT22;538;42.654;23.376;2022-07-19T19:07:12;24.00;2.90
1103;DHT22;538;42.654;23.376;2022-07-19T19:09:41;23.90;3.00
1103;DHT22;538;42.654;23.376;2022-07-19T19:12:08;23.80;2.70
1103;DHT22;538;42.654;23.376;2022-07-19T19:14:36;23.60;2.90
1103;DHT22;538;42.654;23.376;2022-07-19T19:17:04;23.50;3.10
1103;DHT22;538;42.654;23.376;2022-07-19T19:19:32;23.40;3.10
1103;DHT22;538;42.654;23.376;2022-07-19T19:21:59;23.40;3.60
1103;DHT22;538;42.654;23.376;2022-07-19T19:24:27;23.40;5.40
1103;DHT22;538;42.654;23.376;2022-07-19T19:26:56;23.40;4.70
1103;DHT22;538;42.654;23.376;2022-07-19T19:29:23;23.40;4.30
1103;DHT22;538;42.654;23.376;2022-07-19T19:31:54;23.40;3.90
1103;DHT22;538;42.654;23.376;2022-07-19T19:34:21;23.30;3.70
1103;DHT22;538;42.654;23.376;2022-07-19T19:36:48;23.30;4.20
1103;DHT22;538;42.654;23.376;2022-07-19T19:39:15;23.30;4.50
1103;DHT22;538;42.654;23.376;2022-07-19T19:41:43;23.30;4.20
1103;DHT22;538;42.654;23.376;2022-07-19T19:44:12;23.20;4.90
1103;DHT22;538;42.654;23.376;2022-07-19T19:46:40;23.20;4.70
1103;DHT22;538;42.654;23.376;2022-07-19T19:49:07;23.10;4.70
1103;DHT22;538;42.654;23.376;2022-07-19T19:51:35;23.10;5.40
1103;DHT22;538;42.654;23.376;2022-07-19T19:54:05;23.00;5.70
1103;DHT22;538;42.654;23.376;2022-07-19T19:56:33;22.90;6.20
1103;DHT22;538;42.654;23.376;2022-07-19T19:59:03;22.80;6.10
1103;DHT22;538;42.654;23.376;2022-07-19T20:01:32;22.70;6.30
1103;DHT22;538;42.654;23.376;2022-07-19T20:03:59;22.60;6.20
1103;DHT22;538;42.654;23.376;2022-07-19T20:06:26;22.50;6.60
1103;DHT22;538;42.654;23.376;2022-07-19T20:08:54;22.50;6.90
1103;DHT22;538;42.654;23.376;2022-07-19T20:11:21;22.40;6.90
1103;DHT22;538;42.654;23.376;2022-07-19T20:13:50;22.30;7.30
1103;DHT22;538;42.654;23.376;2022-07-19T20:16:41;22.30;7.40
1103;DHT22;538;42.654;23.376;2022-07-19T20:19:19;22.20;7.30
1103;DHT22;538;42.654;23.376;2022-07-19T20:21:58;22.20;7.20
1103;DHT22;538;42.654;23.376;2022-07-19T20:24:30;21.20;7.00
1103;DHT22;538;42.654;23.376;2022-07-19T20:27:01;22.10;7.50
1103;DHT22;538;42.654;23.376;2022-07-19T20:29:29;22.00;7.70
1103;DHT22;538;42.654;23.376;2022-07-19T20:31:57;22.00;7.20
1103;DHT22;538;42.654;23.376;2022-07-19T20:34:24;21.80;7.10
1103;DHT22;538;42.654;23.376;2022-07-19T20:36:51;21.80;7.00
1103;DHT22;538;42.654;23.376;2022-07-19T20:39:18;21.80;7.10
1103;DHT22;538;42.654;23.376;2022-07-19T20:41:46;21.70;7.10
1103;DHT22;538;42.654;23.376;2022-07-19T20:44:13;21.80;7.60
1103;DHT22;538;42.654;23.376;2022-07-19T20:46:41;21.70;7.00
1103;DHT22;538;42.654;23.376;2022-07-19T20:49:15;21.70;7.00
1103;DHT22;538;42.654;23.376;2022-07-19T20:51:43;21.70;7.20
1103;DHT22;538;42.654;23.376;2022-07-19T20:54:10;21.70;8.40
1103;DHT22;538;42.654;23.376;2022-07-19T20:56:38;21.70;7.10
1103;DHT22;538;42.654;23.376;2022-07-19T20:59:05;21.70;7.80
1103;DHT22;538;42.654;23.376;2022-07-19T21:01:33;21.60;8.00
1103;DHT22;538;42.654;23.376;2022-07-19T21:04:00;21.60;7.70
1103;DHT22;538;42.654;23.376;2022-07-19T21:06:29;21.60;7.70